createdAt,value
2023-02-11T11:12:28.042Z,1014.9
2023-02-11T11:27:46.244Z,1014.9
2023-02-11T11:43:05.679Z,1015.1
2023-02-11T11:58:25.102Z,1015.2
2023-02-11T12:13:44.533Z,1015.2
2023-02-11T12:29:03.955Z,1015.2
2023-02-11T12:44:23.389Z,1014.9
2023-02-11T12:59:42.818Z,1015
2023-02-11T13:15:02.240Z,1014.9
2023-02-11T13:30:21.678Z,1015
2023-02-11T13:45:41.113Z,1015.1
2023-02-11T14:01:00.535Z,1015.1
2023-02-11T14:16:19.971Z,1015.1
2023-02-11T14:31:39.391Z,1015.1
2023-02-11T14:46:58.818Z,1015.1
2023-02-11T15:02:18.262Z,1015.1
2023-02-11T15:17:37.682Z,1015.3
2023-02-11T15:32:57.093Z,1015.3
2023-02-11T15:48:16.528Z,1015.5
2023-02-11T16:18:55.391Z,1015.6
2023-02-11T16:34:13.873Z,1015.8
2023-02-11T16:49:32.377Z,1015.9
2023-02-11T17:04:51.830Z,1016.1
2023-02-11T17:20:11.311Z,1016.2
2023-02-11T17:35:30.783Z,1016.2
2023-02-11T17:50:50.258Z,1016.2
2023-02-11T18:06:09.725Z,1016.5
2023-02-11T18:21:29.182Z,1016.7
2023-02-11T18:36:48.667Z,1016.8
2023-02-11T18:52:08.129Z,1016.9
2023-02-11T19:07:27.597Z,1017.1
2023-02-11T19:22:47.081Z,1017.1
2023-02-11T19:38:06.533Z,1017.4
2023-02-11T19:53:26.006Z,1017.5
2023-02-11T20:08:44.505Z,1017.7
2023-02-11T20:24:03.971Z,1017.9
2023-02-11T20:39:23.443Z,1017.9
2023-02-11T20:54:42.910Z,1017.9
2023-02-11T21:10:02.375Z,1018.2
2023-02-11T21:25:21.860Z,1018.3
2023-02-11T21:40:41.327Z,1018.7
2023-02-11T21:55:59.828Z,1018.7
2023-02-11T22:11:18.293Z,1018.8
2023-02-11T22:26:37.764Z,1018.9
2023-02-11T22:41:57.247Z,1019
2023-02-11T22:57:15.000Z,1019.2
2023-02-11T23:12:34.221Z,1019.5
2023-02-11T23:27:53.675Z,1019.4
2023-02-11T23:43:13.159Z,1019.4
2023-02-11T23:58:32.625Z,1019.6
